Time;durP1;ratioP1;P1;durP2;ratioP2;P2;SDS_P1;SDS_P2;PMS_P1;PMS_P2;Temp;Humidity;BMP_temperature;BMP_pressure;BME280_temperature;BME280_humidity;BME280_pressure;Samples;Min_cycle;Max_cycle;Signal;HPM_P1;HPM_P2
2023/12/30 00:00:54;;;;;;;0.75;0.40;;;;;;;7.25;100.00;99951.63;4974157;28;20627;-65
2023/12/30 00:03:25;;;;;;;1.05;0.60;;;;;;;7.35;100.00;99960.13;4972950;28;20279;-66
2023/12/30 00:05:59;;;;;;;0.80;0.50;;;;;;;7.34;100.00;99956.59;4965963;28;20211;-64
2023/12/30 00:08:30;;;;;;;0.90;0.50;;;;;;;7.35;100.00;99960.97;4969335;28;20671;-64
2023/12/30 00:11:01;;;;;;;2.45;0.70;;;;;;;7.29;100.00;99961.78;4967457;28;20645;-66
2023/12/30 00:13:31;;;;;;;0.90;0.60;;;;;;;7.36;100.00;99951.81;4967436;28;20676;-64
2023/12/30 00:16:04;;;;;;;3.28;0.60;;;;;;;7.39;100.00;99958.69;4967912;28;20234;-63
2023/12/30 00:18:37;;;;;;;0.80;0.40;;;;;;;7.45;100.00;99959.72;4969370;28;20196;-64
2023/12/30 00:21:11;;;;;;;0.77;0.50;;;;;;;7.50;100.00;99954.56;4971864;28;20195;-65
2023/12/30 00:23:43;;;;;;;1.13;0.57;;;;;;;7.50;100.00;99965.34;4970330;28;20228;-65
2023/12/30 00:26:22;;;;;;;0.80;0.50;;;;;;;7.38;100.00;99963.22;4971685;28;20226;-64
2023/12/30 00:29:13;;;;;;;1.90;1.15;;;;;;;7.21;100.00;99951.16;4967986;28;20187;-65
2023/12/30 00:31:44;;;;;;;0.80;0.60;;;;;;;7.19;100.00;99909.38;4967630;28;20188;-65
2023/12/30 00:34:14;;;;;;;1.25;0.65;;;;;;;7.40;100.00;99895.75;4974256;28;20235;-65
2023/12/30 00:36:47;;;;;;;0.80;0.50;;;;;;;7.35;100.00;99899.06;4970836;28;20219;-64
2023/12/30 00:39:18;;;;;;;0.80;0.52;;;;;;;7.27;100.00;99920.75;4965371;28;20195;-62
2023/12/30 00:41:48;;;;;;;0.80;0.50;;;;;;;7.25;100.00;99920.16;4967368;28;20192;-65
2023/12/30 00:44:18;;;;;;;1.05;0.55;;;;;;;7.21;100.00;99945.78;4973282;28;20203;-65
2023/12/30 00:46:48;;;;;;;0.90;0.70;;;;;;;7.15;100.00;99959.25;4959512;28;20247;-64
2023/12/30 00:49:19;;;;;;;0.80;0.50;;;;;;;7.15;100.00;99957.38;4976708;28;20196;-64
2023/12/30 00:51:51;;;;;;;1.10;0.50;;;;;;;7.29;100.00;99959.06;4974715;28;20622;-64
2023/12/30 00:54:22;;;;;;;1.35;0.80;;;;;;;7.24;100.00;99960.72;4962024;28;20200;-64
2023/12/30 00:56:52;;;;;;;0.93;0.68;;;;;;;7.29;100.00;99963.63;4968171;28;20211;-65
2023/12/30 00:59:23;;;;;;;1.35;0.82;;;;;;;7.31;100.00;99961.56;4964929;28;20223;-64
2023/12/30 01:01:54;;;;;;;0.90;0.50;;;;;;;7.33;100.00;99959.50;4956781;28;20219;-63
2023/12/30 01:04:24;;;;;;;1.25;0.60;;;;;;;7.32;100.00;99963.22;4968014;28;20231;-64
2023/12/30 01:06:57;;;;;;;0.80;0.50;;;;;;;7.44;100.00;99972.38;4963680;28;20204;-64
2023/12/30 01:09:27;;;;;;;0.90;0.55;;;;;;;7.42;100.00;99979.78;4973646;28;20196;-64
2023/12/30 01:11:58;;;;;;;1.10;0.57;;;;;;;7.41;100.00;99975.44;4980253;28;20195;-65
2023/12/30 01:14:30;;;;;;;1.35;0.50;;;;;;;7.46;100.00;99977.53;4981089;28;20298;-64
2023/12/30 01:17:02;;;;;;;0.80;0.60;;;;;;;7.38;100.00;99971.31;4966872;28;20192;-63
2023/12/30 01:19:33;;;;;;;0.98;0.50;;;;;;;7.40;100.00;99984.56;4971865;28;20192;-64
2023/12/30 01:22:05;;;;;;;1.33;0.60;;;;;;;7.36;100.00;99992.19;4972477;28;20556;-64
2023/12/30 01:24:38;;;;;;;1.20;0.70;;;;;;;7.40;100.00;99976.50;4971166;28;20389;-65
2023/12/30 01:27:09;;;;;;;0.85;0.63;;;;;;;7.35;100.00;99973.59;4971625;28;20553;-64
2023/12/30 01:29:40;;;;;;;1.00;0.60;;;;;;;7.29;100.00;99972.53;4967580;28;20196;-64
2023/12/30 01:32:10;;;;;;;0.80;0.50;;;;;;;7.27;100.00;99982.66;4970226;28;20206;-64
2023/12/30 01:34:41;;;;;;;0.80;0.47;;;;;;;7.25;100.00;99979.34;4972378;28;20225;-66
2023/12/30 01:37:17;;;;;;;0.90;0.80;;;;;;;7.20;100.00;99986.38;4971401;28;20613;-65
2023/12/30 01:39:48;;;;;;;0.80;0.50;;;;;;;7.17;100.00;99987.59;4969487;28;20206;-65
2023/12/30 01:42:19;;;;;;;1.17;0.52;;;;;;;7.20;100.00;99992.59;4967419;28;20200;-64
2023/12/30 01:44:51;;;;;;;2.13;1.30;;;;;;;7.17;100.00;99995.66;4974334;28;20227;-63
2023/12/30 01:47:23;;;;;;;0.90;0.50;;;;;;;7.09;100.00;100001.22;4965659;28;20195;-64
2023/12/30 01:49:55;;;;;;;0.80;0.40;;;;;;;7.06;100.00;100004.34;4973254;28;20195;-64
2023/12/30 01:52:28;;;;;;;0.80;0.50;;;;;;;7.01;100.00;99998.72;4963210;28;20203;-64
2023/12/30 01:55:01;;;;;;;0.85;0.55;;;;;;;6.97;100.00;99992.09;4970810;28;20217;-64
2023/12/30 01:57:33;;;;;;;0.90;0.50;;;;;;;6.90;100.00;100002.81;4962904;28;20626;-65
2023/12/30 02:00:05;;;;;;;0.80;0.50;;;;;;;6.95;100.00;100000.34;4973473;28;20207;-65
2023/12/30 02:02:43;;;;;;;1.30;0.88;;;;;;;6.93;100.00;100001.56;4955301;28;20274;-64
2023/12/30 02:05:16;;;;;;;1.50;0.50;;;;;;;6.94;100.00;100001.38;4960419;28;20674;-64
2023/12/30 02:07:50;;;;;;;1.10;0.70;;;;;;;7.03;100.00;100012.78;4967942;28;20660;-64
2023/12/30 02:10:24;;;;;;;0.80;0.50;;;;;;;7.08;100.00;100014.88;4960655;28;20630;-64
2023/12/30 02:12:56;;;;;;;0.90;0.60;;;;;;;7.02;100.00;100015.69;4970386;28;20199;-64
2023/12/30 02:15:29;;;;;;;0.90;0.50;;;;;;;7.00;100.00;100018.59;4965190;28;20245;-64
2023/12/30 02:18:00;;;;;;;0.80;0.60;;;;;;;7.05;100.00;100026.88;4972163;28;20203;-64
2023/12/30 02:20:34;;;;;;;5.13;0.60;;;;;;;7.12;100.00;100010.75;4968455;28;20223;-65
2023/12/30 02:23:09;;;;;;;0.90;0.60;;;;;;;7.13;100.00;100021.31;4978901;28;20266;-65
2023/12/30 02:25:40;;;;;;;0.93;0.60;;;;;;;7.13;100.00;100013.25;4965566;28;20210;-64
2023/12/30 02:28:12;;;;;;;1.65;0.75;;;;;;;7.16;100.00;100015.56;4964539;28;20208;-65
2023/12/30 02:30:43;;;;;;;2.75;1.02;;;;;;;7.23;100.00;100021.78;4967910;28;20207;-65
2023/12/30 02:33:17;;;;;;;0.82;0.57;;;;;;;7.30;100.00;100019.94;4974165;28;20225;-65
2023/12/30 02:35:48;;;;;;;1.27;0.70;;;;;;;7.32;100.00;100023.25;4972189;28;20310;-66
2023/12/30 02:38:21;;;;;;;2.53;0.60;;;;;;;7.39;100.00;100044.81;4962085;28;20642;-64
2023/12/30 02:40:54;;;;;;;1.25;1.15;;;;;;;7.37;100.00;100036.09;4960848;28;20204;-65
2023/12/30 02:43:28;;;;;;;0.90;0.70;;;;;;;7.35;100.00;100022.88;4961683;28;20203;-64
2023/12/30 02:45:59;;;;;;;0.80;0.65;;;;;;;7.32;100.00;100030.50;4962079;28;20227;-65
2023/12/30 02:48:30;;;;;;;4.80;1.02;;;;;;;7.42;100.00;100034.47;4965050;28;20267;-64
2023/12/30 02:51:02;;;;;;;1.33;0.85;;;;;;;7.47;100.00;100041.94;4968656;28;20627;-64
2023/12/30 02:53:38;;;;;;;0.90;0.60;;;;;;;7.40;100.00;100036.53;4964292;28;20208;-64
2023/12/30 02:56:21;;;;;;;1.00;0.60;;;;;;;7.47;100.00;100035.72;4962763;28;20525;-64
2023/12/30 02:58:57;;;;;;;1.90;0.82;;;;;;;7.48;100.00;100032.00;4960334;28;20196;-64
2023/12/30 03:01:32;;;;;;;1.27;0.70;;;;;;;7.45;100.00;100038.63;4955660;28;20581;-65
2023/12/30 03:04:04;;;;;;;2.90;0.60;;;;;;;7.46;100.00;100042.13;4968282;28;20195;-65
2023/12/30 03:06:36;;;;;;;2.17;0.70;;;;;;;7.47;100.00;100044.63;4972048;28;20228;-65
2023/12/30 03:09:09;;;;;;;2.28;0.60;;;;;;;7.53;100.00;100045.69;4970684;28;20237;-64
2023/12/30 03:11:42;;;;;;;0.95;0.60;;;;;;;7.56;100.00;100048.78;4975908;28;20591;-65
2023/12/30 03:14:14;;;;;;;0.90;0.50;;;;;;;7.46;100.00;100039.44;4985977;28;20204;-65
2023/12/30 03:16:47;;;;;;;0.80;0.40;;;;;;;7.46;100.00;100047.50;4975186;28;20274;-65
2023/12/30 03:19:21;;;;;;;0.80;0.60;;;;;;;7.55;100.00;100049.00;4966093;28;20219;-64
2023/12/30 03:21:53;;;;;;;2.78;0.55;;;;;;;7.55;100.00;100038.25;4967932;28;20192;-65
2023/12/30 03:24:27;;;;;;;5.47;0.70;;;;;;;7.52;100.00;100049.41;4969605;28;20208;-65
2023/12/30 03:27:00;;;;;;;1.45;0.90;;;;;;;7.39;100.00;100052.88;4969741;28;20225;-63
2023/12/30 03:29:33;;;;;;;0.80;0.50;;;;;;;7.43;100.00;100044.22;4959107;28;20606;-65
2023/12/30 03:32:04;;;;;;;0.80;0.60;;;;;;;7.37;100.00;100026.16;4968597;28;20216;-64
2023/12/30 03:34:37;;;;;;;0.90;0.65;;;;;;;7.32;100.00;100011.66;4973880;28;20200;-64
2023/12/30 03:37:09;;;;;;;0.93;0.60;;;;;;;7.37;100.00;100009.19;4965394;28;20211;-65
2023/12/30 03:39:43;;;;;;;0.80;0.50;;;;;;;7.34;100.00;100013.13;4973248;28;20253;-65
2023/12/30 03:42:14;;;;;;;1.13;0.57;;;;;;;7.31;100.00;100010.00;4976244;28;20207;-64
2023/12/30 03:44:47;;;;;;;0.90;0.70;;;;;;;7.29;100.00;100018.28;4973368;28;20194;-64
2023/12/30 03:47:21;;;;;;;1.10;0.52;;;;;;;7.23;100.00;100016.38;4952577;28;20199;-64
2023/12/30 03:49:54;;;;;;;0.80;0.50;;;;;;;7.17;100.00;100019.88;4977252;28;20282;-65
2023/12/30 03:52:25;;;;;;;0.95;0.70;;;;;;;7.16;100.00;100022.78;4967922;28;20699;-66
2023/12/30 03:55:01;;;;;;;1.60;0.65;;;;;;;7.12;100.00;100011.56;4963705;28;20220;-65
2023/12/30 03:57:33;;;;;;;0.90;0.60;;;;;;;7.14;100.00;100019.47;4976707;28;20554;-66
2023/12/30 04:00:08;;;;;;;7.72;0.65;;;;;;;7.09;100.00;100017.38;4974285;28;20215;-66
2023/12/30 04:02:42;;;;;;;1.05;0.50;;;;;;;7.06;100.00;100016.94;4964200;28;20231;-67
2023/12/30 04:05:19;;;;;;;0.80;0.50;;;;;;;7.09;100.00;100020.06;4966048;28;20219;-65
2023/12/30 04:07:51;;;;;;;1.10;1.00;;;;;;;7.10;100.00;100029.81;4964561;28;20187;-65
2023/12/30 04:10:26;;;;;;;1.10;1.00;;;;;;;7.03;100.00;100034.31;4967413;28;20195;-65
2023/12/30 04:12:58;;;;;;;1.10;0.50;;;;;;;7.02;100.00;100038.03;4977084;28;20640;-63
2023/12/30 04:15:31;;;;;;;1.65;0.80;;;;;;;6.97;100.00;100051.28;4974881;28;20219;-67
2023/12/30 04:18:04;;;;;;;1.60;0.70;;;;;;;7.01;100.00;100051.69;4958176;28;20279;-64
2023/12/30 04:20:36;;;;;;;0.90;0.50;;;;;;;6.98;100.00;100055.59;4959107;28;20199;-66
2023/12/30 04:23:11;;;;;;;0.90;0.60;;;;;;;6.92;100.00;100059.09;4976932;28;20230;-65
2023/12/30 04:25:44;;;;;;;0.90;0.50;;;;;;;6.89;100.00;100048.72;4980863;28;20224;-65
2023/12/30 04:28:18;;;;;;;2.00;0.70;;;;;;;6.84;100.00;100061.94;4977347;28;20195;-64
2023/12/30 04:30:53;;;;;;;0.80;0.57;;;;;;;6.86;100.00;100059.88;4971458;28;20191;-66
2023/12/30 04:33:25;;;;;;;2.35;0.50;;;;;;;6.82;100.00;100069.38;4980410;28;20569;-64
2023/12/30 04:35:57;;;;;;;0.90;0.50;;;;;;;6.81;100.00;100073.09;4962550;28;20315;-65
2023/12/30 04:38:31;;;;;;;0.85;0.70;;;;;;;6.86;100.00;100078.72;4971218;28;20246;-64
2023/12/30 04:41:05;;;;;;;1.00;0.75;;;;;;;6.75;100.00;100084.63;4973673;28;20199;-66
2023/12/30 04:43:38;;;;;;;2.10;0.57;;;;;;;6.78;100.00;100078.84;4965773;28;20199;-65
2023/12/30 04:46:12;;;;;;;0.90;0.45;;;;;;;6.79;100.00;100080.53;4971190;28;20235;-65
2023/12/30 04:48:44;;;;;;;0.80;0.50;;;;;;;6.64;100.00;100087.84;4968055;28;20195;-65
2023/12/30 04:51:18;;;;;;;1.60;0.98;;;;;;;6.58;100.00;100094.03;4989211;28;20191;-65
2023/12/30 04:53:49;;;;;;;1.45;1.35;;;;;;;6.50;100.00;100109.28;4974004;28;20633;-65
2023/12/30 04:56:23;;;;;;;0.80;0.50;;;;;;;6.60;100.00;100092.81;4973897;28;20274;-62
2023/12/30 04:58:59;;;;;;;1.10;0.65;;;;;;;6.72;100.00;100110.06;4968235;28;20199;-63
2023/12/30 05:01:34;;;;;;;5.80;1.60;;;;;;;6.59;100.00;100107.25;4964576;28;20572;-65
2023/12/30 05:04:06;;;;;;;1.38;0.55;;;;;;;6.64;100.00;100112.06;4958305;28;20222;-65
2023/12/30 05:06:39;;;;;;;1.17;0.50;;;;;;;6.71;100.00;100112.94;4967418;28;20223;-65
2023/12/30 05:09:16;;;;;;;0.80;0.50;;;;;;;6.77;100.00;100123.75;4966672;28;20198;-65
2023/12/30 05:11:51;;;;;;;1.30;0.63;;;;;;;6.86;100.00;100132.50;4968717;28;20199;-66
2023/12/30 05:14:23;;;;;;;1.23;1.08;;;;;;;6.87;100.00;100137.66;4973482;28;20230;-65
2023/12/30 05:16:57;;;;;;;1.35;0.68;;;;;;;6.94;100.00;100140.41;4973326;28;20273;-66
2023/12/30 05:19:33;;;;;;;0.85;0.47;;;;;;;7.01;100.00;100141.28;4967185;28;20199;-65
2023/12/30 05:22:05;;;;;;;0.90;0.60;;;;;;;6.92;100.00;100139.78;4966618;28;20227;-65
2023/12/30 05:24:41;;;;;;;1.00;0.50;;;;;;;6.92;100.00;100145.97;4962419;28;20200;-66
2023/12/30 05:27:15;;;;;;;0.80;0.50;;;;;;;6.89;100.00;100145.53;4967877;28;20547;-64
2023/12/30 05:29:48;;;;;;;0.80;0.50;;;;;;;6.85;100.00;100149.66;4962925;28;20285;-65
2023/12/30 05:32:21;;;;;;;0.80;0.47;;;;;;;6.88;100.00;100144.72;4967101;28;20215;-65
2023/12/30 05:34:55;;;;;;;1.60;0.60;;;;;;;7.00;100.00;100153.06;4963465;28;20775;-64
2023/12/30 05:37:28;;;;;;;1.60;0.60;;;;;;;7.06;100.00;100164.91;4963672;28;20762;-63
2023/12/30 05:40:00;;;;;;;0.90;0.70;;;;;;;7.02;100.00;100167.13;4969635;28;20210;-64
2023/12/30 05:42:36;;;;;;;0.90;0.60;;;;;;;6.99;100.00;100176.44;4962991;28;20217;-64
2023/12/30 05:45:08;;;;;;;2.55;0.50;;;;;;;7.02;100.00;100177.91;4972826;28;20219;-65
2023/12/30 05:47:40;;;;;;;0.80;0.50;;;;;;;7.08;100.00;100182.50;4971971;28;20195;-66
2023/12/30 05:50:15;;;;;;;1.88;0.65;;;;;;;6.99;100.00;100183.69;4972010;28;20199;-62
2023/12/30 05:52:48;;;;;;;0.80;0.50;;;;;;;6.97;100.00;100191.13;4964392;28;20199;-67
2023/12/30 05:55:21;;;;;;;1.55;0.73;;;;;;;6.94;100.00;100195.03;4977462;28;20306;-65
2023/12/30 05:57:56;;;;;;;0.80;0.47;;;;;;;6.88;100.00;100203.88;4974808;28;20222;-65
2023/12/30 06:00:27;;;;;;;0.80;0.50;;;;;;;6.88;100.00;100205.72;4968960;28;20203;-64
2023/12/30 06:03:00;;;;;;;0.90;0.50;;;;;;;6.82;100.00;100219.97;4968030;28;20273;-65
2023/12/30 06:05:31;;;;;;;0.80;0.50;;;;;;;6.80;100.00;100222.03;4968050;28;20221;-65
2023/12/30 06:08:04;;;;;;;0.90;0.50;;;;;;;6.76;100.00;100220.75;4972804;28;20195;-64
2023/12/30 06:10:36;;;;;;;1.00;0.57;;;;;;;6.59;100.00;100227.41;4958100;28;20200;-64
2023/12/30 06:13:12;;;;;;;0.90;0.50;;;;;;;6.39;100.00;100227.22;4965081;28;20196;-62
2023/12/30 06:15:48;;;;;;;0.85;0.57;;;;;;;6.26;100.00;100225.22;4969227;28;20229;-66
2023/12/30 06:18:20;;;;;;;0.80;0.50;;;;;;;6.15;100.00;100227.59;4965860;28;20218;-65
2023/12/30 06:20:57;;;;;;;0.80;0.50;;;;;;;6.02;100.00;100228.25;4970871;28;20191;-64
2023/12/30 06:23:32;;;;;;;0.90;0.50;;;;;;;5.98;100.00;100238.56;4964903;28;20253;-63
2023/12/30 06:26:08;;;;;;;2.45;0.60;;;;;;;5.89;100.00;100244.22;4971401;28;20238;-62
2023/12/30 06:28:46;;;;;;;1.10;0.60;;;;;;;5.83;100.00;100248.44;4972890;28;20202;-66
2023/12/30 06:31:19;;;;;;;1.23;0.52;;;;;;;5.77;100.00;100257.25;4969068;28;20298;-66
2023/12/30 06:33:56;;;;;;;1.00;0.75;;;;;;;5.65;100.00;100254.22;4961137;28;20241;-64
2023/12/30 06:36:30;;;;;;;0.80;0.60;;;;;;;5.69;100.00;100263.56;4965279;28;20214;-65
2023/12/30 06:39:05;;;;;;;1.15;0.60;;;;;;;5.61;100.00;100263.66;4970899;28;20243;-64
2023/12/30 06:41:42;;;;;;;0.80;0.47;;;;;;;5.57;100.00;100270.38;4962317;28;20191;-64
2023/12/30 06:44:17;;;;;;;0.85;0.57;;;;;;;5.64;100.00;100279.38;4959668;28;20223;-64
2023/12/30 06:46:49;;;;;;;0.90;0.50;;;;;;;5.59;100.00;100279.09;4968235;28;20621;-65
2023/12/30 06:49:24;;;;;;;3.30;0.60;;;;;;;5.56;100.00;100282.16;4978303;28;20218;-64
2023/12/30 06:51:57;;;;;;;0.90;0.60;;;;;;;5.58;100.00;100285.47;4972503;28;20196;-63
2023/12/30 06:54:31;;;;;;;1.45;1.02;;;;;;;5.48;100.00;100290.28;4971723;28;20214;-65
2023/12/30 06:57:06;;;;;;;0.80;0.50;;;;;;;5.43;100.00;100306.09;4962965;28;20188;-64
2023/12/30 06:59:40;;;;;;;0.95;0.60;;;;;;;5.52;100.00;100307.69;4976513;28;20564;-65
2023/12/30 07:02:11;;;;;;;2.67;1.60;;;;;;;5.48;100.00;100309.06;4967564;28;20751;-64
2023/12/30 07:04:43;;;;;;;3.22;0.50;;;;;;;5.50;100.00;100308.91;4972417;28;20585;-66
2023/12/30 07:07:15;;;;;;;3.05;0.55;;;;;;;5.42;100.00;100317.03;4966048;28;20680;-65
2023/12/30 07:09:47;;;;;;;0.88;0.55;;;;;;;5.43;100.00;100311.47;4968083;28;20192;-64
2023/12/30 07:12:21;;;;;;;0.90;0.60;;;;;;;5.49;100.00;100317.94;4972069;28;20278;-65
2023/12/30 07:14:58;;;;;;;1.65;0.80;;;;;;;5.54;100.00;100319.06;4964777;28;20246;-65
2023/12/30 07:17:32;;;;;;;1.38;0.60;;;;;;;5.48;100.00;100327.84;4972030;28;20199;-64
2023/12/30 07:20:04;;;;;;;1.23;0.70;;;;;;;5.51;100.00;100330.19;4970932;28;20201;-66
2023/12/30 07:22:37;;;;;;;0.80;0.50;;;;;;;5.51;100.00;100334.72;4961054;28;20192;-64
2023/12/30 07:25:09;;;;;;;1.73;0.60;;;;;;;5.51;100.00;100343.59;4967678;28;20645;-65
2023/12/30 07:27:43;;;;;;;3.50;0.90;;;;;;;5.47;100.00;100338.78;4963681;28;20617;-65
2023/12/30 07:30:20;;;;;;;0.80;0.50;;;;;;;5.51;100.00;100343.59;4967718;28;20313;-63
2023/12/30 07:32:52;;;;;;;0.80;0.50;;;;;;;5.50;100.00;100344.63;4965046;28;20200;-64
2023/12/30 07:35:27;;;;;;;4.43;0.60;;;;;;;5.60;100.00;100345.19;4973760;28;20219;-65
2023/12/30 07:38:00;;;;;;;1.00;0.50;;;;;;;5.57;100.00;100348.22;4958555;28;20195;-65
2023/12/30 07:40:32;;;;;;;0.80;0.50;;;;;;;5.55;100.00;100354.81;4973384;28;20644;-65
2023/12/30 07:43:05;;;;;;;1.00;0.60;;;;;;;5.56;100.00;100356.47;4968824;28;20192;-64
2023/12/30 07:45:40;;;;;;;1.30;0.65;;;;;;;5.65;100.00;100356.22;4943945;28;20235;-65
2023/12/30 07:48:12;;;;;;;0.90;0.60;;;;;;;5.65;100.00;100369.63;4967403;28;20204;-65
2023/12/30 07:50:44;;;;;;;1.23;1.08;;;;;;;5.65;100.00;100377.69;4966272;28;20203;-65
2023/12/30 07:53:17;;;;;;;1.38;0.60;;;;;;;5.67;100.00;100372.94;4969675;28;20302;-64
2023/12/30 07:55:53;;;;;;;0.80;0.60;;;;;;;5.59;100.00;100373.03;4971525;28;20688;-65
2023/12/30 07:58:26;;;;;;;1.17;0.60;;;;;;;5.68;100.00;100385.38;4971851;28;20207;-64
2023/12/30 08:01:00;;;;;;;0.90;0.70;;;;;;;5.69;100.00;100384.34;4961171;28;20250;-64
2023/12/30 08:03:34;;;;;;;0.80;0.60;;;;;;;5.67;100.00;100390.91;4960710;28;20200;-68
2023/12/30 08:06:07;;;;;;;0.80;0.50;;;;;;;5.58;100.00;100398.22;4964755;28;20735;-66
2023/12/30 08:08:41;;;;;;;1.00;0.70;;;;;;;5.66;100.00;100400.81;4968258;28;20187;-65
2023/12/30 08:11:16;;;;;;;2.42;0.68;;;;;;;5.72;100.00;100414.53;4974720;28;20195;-64
2023/12/30 08:13:56;;;;;;;1.10;0.65;;;;;;;5.73;100.00;100413.50;4969903;28;20195;-64
2023/12/30 08:16:35;;;;;;;1.17;0.70;;;;;;;5.71;100.00;100410.19;4973897;28;20231;-64
2023/12/30 08:19:07;;;;;;;1.00;0.60;;;;;;;5.69;100.00;100410.38;4966295;28;20215;-65
2023/12/30 08:21:39;;;;;;;1.85;0.77;;;;;;;5.73;100.00;100408.97;4971857;28;20577;-65
2023/12/30 08:24:14;;;;;;;0.90;0.70;;;;;;;5.79;100.00;100410.09;4961570;28;20204;-65
2023/12/30 08:26:50;;;;;;;3.42;0.70;;;;;;;5.81;100.00;100414.25;4971415;28;20214;-65
2023/12/30 08:29:31;;;;;;;1.00;0.65;;;;;;;5.86;100.00;100417.22;4974498;28;20202;-65
2023/12/30 08:32:10;;;;;;;1.80;1.23;;;;;;;5.81;100.00;100408.88;4971845;28;20206;-65
2023/12/30 08:34:42;;;;;;;1.30;0.70;;;;;;;5.83;100.00;100409.53;4971880;28;20226;-65
2023/12/30 08:37:15;;;;;;;0.80;0.60;;;;;;;5.80;100.00;100411.78;4963787;28;20712;-65
2023/12/30 08:39:48;;;;;;;1.00;0.82;;;;;;;5.83;100.00;100411.41;4968160;28;20204;-65
2023/12/30 08:42:21;;;;;;;0.80;0.50;;;;;;;5.80;100.00;100427.88;4967850;28;20254;-65
2023/12/30 08:44:54;;;;;;;0.80;0.50;;;;;;;5.82;100.00;100420.47;4967633;28;20293;-65
2023/12/30 08:47:31;;;;;;;1.00;0.75;;;;;;;5.86;100.00;100424.44;4968057;28;20200;-63
2023/12/30 08:50:05;;;;;;;1.42;0.80;;;;;;;5.89;100.00;100424.97;4962563;28;20226;-64
2023/12/30 08:52:40;;;;;;;0.90;0.60;;;;;;;5.95;100.00;100426.94;4965579;28;20213;-64
2023/12/30 08:55:16;;;;;;;0.90;0.60;;;;;;;5.90;100.00;100433.88;4981092;28;20230;-65
2023/12/30 08:58:00;;;;;;;0.80;0.60;;;;;;;5.91;100.00;100446.25;4969368;28;20619;-65
2023/12/30 09:00:35;;;;;;;1.02;0.50;;;;;;;5.90;100.00;100441.91;4969613;28;20588;-64
2023/12/30 09:03:10;;;;;;;3.60;0.70;;;;;;;5.97;100.00;100445.53;4975688;28;20198;-65
2023/12/30 09:05:41;;;;;;;0.80;0.50;;;;;;;5.97;100.00;100440.16;4963519;28;20464;-64
2023/12/30 09:08:15;;;;;;;3.15;1.52;;;;;;;5.96;100.00;100444.69;4964189;28;20199;-66
2023/12/30 09:10:48;;;;;;;1.33;0.90;;;;;;;5.95;100.00;100443.03;4963647;28;20199;-63
2023/12/30 09:13:22;;;;;;;1.90;1.15;;;;;;;5.99;100.00;100443.50;4963951;28;20192;-64
2023/12/30 09:15:54;;;;;;;1.30;0.80;;;;;;;6.03;100.00;100453.69;4970921;28;20215;-64
2023/12/30 09:18:32;;;;;;;1.00;0.70;;;;;;;6.15;100.00;100456.75;4962855;28;20700;-65
2023/12/30 09:21:05;;;;;;;1.52;0.70;;;;;;;6.20;100.00;100457.03;4966535;28;20219;-65
2023/12/30 09:23:38;;;;;;;1.00;0.80;;;;;;;6.27;100.00;100471.41;4966226;28;20671;-64
2023/12/30 09:26:16;;;;;;;0.80;0.50;;;;;;;6.32;100.00;100471.69;4945796;29;20291;-65
2023/12/30 09:28:47;;;;;;;3.92;1.35;;;;;;;6.42;100.00;100476.78;4959044;28;20222;-64
2023/12/30 09:31:23;;;;;;;1.00;0.63;;;;;;;6.49;99.01;100469.63;4947749;28;20230;-64
2023/12/30 09:34:07;;;;;;;2.85;0.70;;;;;;;6.47;99.60;100469.84;4972363;28;20206;-66
2023/12/30 09:36:40;;;;;;;2.08;0.77;;;;;;;6.53;98.11;100479.81;4962184;28;20219;-64
2023/12/30 09:39:15;;;;;;;1.55;0.70;;;;;;;6.48;98.66;100484.97;4971027;28;20200;-64
2023/12/30 09:41:48;;;;;;;1.33;0.82;;;;;;;6.51;99.40;100487.25;4965751;28;20242;-65
2023/12/30 09:44:25;;;;;;;0.80;0.50;;;;;;;6.46;98.17;100500.41;4965530;28;20223;-64
2023/12/30 09:46:58;;;;;;;1.25;0.93;;;;;;;6.47;98.40;100507.47;4969116;28;20282;-65
2023/12/30 09:49:37;;;;;;;0.80;0.50;;;;;;;6.48;98.33;100502.94;4959324;28;20199;-64
2023/12/30 09:52:13;;;;;;;3.28;0.88;;;;;;;6.53;97.94;100501.34;4981854;28;20202;-66
2023/12/30 09:54:48;;;;;;;1.00;0.73;;;;;;;6.54;96.77;100500.31;4968642;28;20206;-65
2023/12/30 09:57:22;;;;;;;0.80;0.52;;;;;;;6.60;96.32;100511.34;4961598;28;20199;-66
2023/12/30 09:59:57;;;;;;;0.80;0.50;;;;;;;6.73;96.89;100504.28;4964369;28;20726;-66
2023/12/30 10:02:36;;;;;;;0.80;0.50;;;;;;;6.87;95.97;100510.69;4971616;28;20195;-65
2023/12/30 10:05:12;;;;;;;3.97;1.02;;;;;;;6.90;94.84;100519.22;4981877;28;20242;-66
2023/12/30 10:07:46;;;;;;;2.35;0.70;;;;;;;6.89;94.98;100516.72;4958868;28;20211;-64
2023/12/30 10:10:35;;;;;;;1.00;0.63;;;;;;;7.02;94.31;100524.94;4969095;28;20206;-64
2023/12/30 10:13:07;;;;;;;2.47;0.82;;;;;;;7.02;93.44;100527.63;4959851;28;20693;-64
2023/12/30 10:15:42;;;;;;;1.42;1.30;;;;;;;7.05;93.84;100521.88;4962567;28;20218;-65
2023/12/30 10:18:15;;;;;;;1.73;0.90;;;;;;;7.10;93.98;100526.72;4972152;28;20191;-63
2023/12/30 10:20:48;;;;;;;1.77;1.60;;;;;;;7.20;93.09;100533.47;4961547;28;20212;-65
2023/12/30 10:23:21;;;;;;;1.90;0.70;;;;;;;7.32;93.36;100534.63;4963123;28;20284;-64
2023/12/30 10:25:52;;;;;;;3.85;1.05;;;;;;;7.32;92.63;100534.63;4963021;28;20597;-66
2023/12/30 10:28:23;;;;;;;1.02;0.90;;;;;;;7.46;92.42;100540.97;4968657;28;20207;-66
2023/12/30 10:31:03;;;;;;;1.48;0.68;;;;;;;7.39;91.92;100546.31;4959501;28;20195;-65
2023/12/30 10:33:36;;;;;;;1.45;0.88;;;;;;;7.54;92.46;100538.19;4962491;28;20205;-62
2023/12/30 10:36:10;;;;;;;0.90;0.55;;;;;;;7.55;91.53;100547.13;4970305;28;20576;-66
2023/12/30 10:38:48;;;;;;;0.90;0.73;;;;;;;7.58;91.26;100533.25;4969374;28;20228;-66
2023/12/30 10:41:19;;;;;;;1.05;0.80;;;;;;;7.58;91.44;100546.72;4965148;28;20223;-65
2023/12/30 10:43:50;;;;;;;1.30;0.75;;;;;;;7.62;90.87;100545.31;4963568;28;20246;-65
2023/12/30 10:46:27;;;;;;;1.13;0.80;;;;;;;7.50;91.76;100552.22;4970649;28;20266;-66
2023/12/30 10:49:03;;;;;;;1.05;0.82;;;;;;;7.51;91.77;100551.19;4979658;28;20221;-66
2023/12/30 10:51:40;;;;;;;3.38;0.88;;;;;;;7.53;91.80;100546.47;4972316;28;20195;-66
2023/12/30 10:54:19;;;;;;;1.60;0.70;;;;;;;7.48;91.65;100549.72;4957029;28;20200;-64
2023/12/30 10:57:03;;;;;;;2.55;0.60;;;;;;;7.42;92.69;100567.47;4962592;28;20307;-65
2023/12/30 10:59:36;;;;;;;5.38;1.67;;;;;;;7.40;92.08;100560.63;4967762;28;20203;-67
2023/12/30 11:02:12;;;;;;;3.28;1.85;;;;;;;7.38;92.76;100574.25;4962551;28;20187;-64
2023/12/30 11:04:46;;;;;;;0.90;0.60;;;;;;;7.46;92.34;100556.31;4964046;28;20198;-65
2023/12/30 11:07:22;;;;;;;1.80;1.40;;;;;;;7.41;91.58;100556.88;4976994;28;20226;-66
2023/12/30 11:09:53;;;;;;;4.22;1.10;;;;;;;7.43;90.77;100555.69;4976604;28;20676;-65
2023/12/30 11:12:28;;;;;;;2.25;1.63;;;;;;;7.41;91.82;100559.56;4965451;28;20196;-66
2023/12/30 11:15:03;;;;;;;3.38;0.88;;;;;;;7.59;92.28;100567.25;4960833;28;20219;-67
2023/12/30 11:17:36;;;;;;;2.28;1.45;;;;;;;7.60;91.93;100568.91;4971857;28;20238;-65
2023/12/30 11:20:26;;;;;;;6.40;0.98;;;;;;;7.66;90.43;100562.75;4968372;28;20211;-65
2023/12/30 11:23:02;;;;;;;0.80;0.50;;;;;;;7.71;90.20;100554.94;4970702;28;20652;-65
2023/12/30 11:25:44;;;;;;;1.10;0.70;;;;;;;7.83;89.64;100558.78;4967831;28;20226;-65
2023/12/30 11:28:18;;;;;;;2.45;0.82;;;;;;;7.95;89.00;100561.78;4969045;28;20199;-66
2023/12/30 11:30:59;;;;;;;5.65;1.67;;;;;;;7.99;88.43;100558.50;4972019;28;20667;-65
2023/12/30 11:33:31;;;;;;;2.42;1.30;;;;;;;7.98;88.24;100546.09;4966693;28;20227;-65
2023/12/30 11:36:05;;;;;;;2.17;1.30;;;;;;;7.95;88.03;100540.22;4970954;28;20231;-66
2023/12/30 11:38:41;;;;;;;1.55;1.05;;;;;;;7.97;87.29;100549.81;4965590;28;20712;-65
2023/12/30 11:41:12;;;;;;;4.70;1.27;;;;;;;8.00;86.68;100533.25;4967253;28;20241;-65
2023/12/30 11:43:45;;;;;;;1.05;0.75;;;;;;;7.92;87.67;100543.31;4970880;28;20196;-65
2023/12/30 11:46:17;;;;;;;5.55;1.05;;;;;;;7.90;87.98;100540.81;4961966;28;20208;-65
2023/12/30 11:48:47;;;;;;;3.35;2.70;;;;;;;8.07;87.69;100536.84;4967486;28;20279;-66
2023/12/30 11:51:23;;;;;;;1.33;0.85;;;;;;;8.03;87.12;100543.66;4969560;28;20196;-63
2023/12/30 11:53:56;;;;;;;1.13;0.70;;;;;;;8.15;86.79;100547.47;4970110;28;20223;-66
2023/12/30 11:56:27;;;;;;;1.27;0.80;;;;;;;8.11;84.81;100546.19;4960547;28;20314;-66
2023/12/30 11:58:58;;;;;;;1.58;1.15;;;;;;;8.07;85.09;100546.78;4966298;28;20224;-65